sensor_id;sensor_type;location;lat;lon;timestamp;P1;durP1;ratioP1;P2;durP2;ratioP2
22922;SDS011;11627;51.322;22.816;2023-01-24T00:00:33;29.05;;;12.70;;
22922;SDS011;11627;51.322;22.816;2023-01-24T00:03:00;32.30;;;13.40;;
22922;SDS011;11627;51.322;22.816;2023-01-24T00:05:28;32.35;;;12.90;;
22922;SDS011;11627;51.322;22.816;2023-01-24T00:07:54;29.63;;;12.55;;
22922;SDS011;11627;51.322;22.816;2023-01-24T00:10:19;33.40;;;13.60;;
22922;SDS011;11627;51.322;22.816;2023-01-24T00:12:46;25.92;;;11.38;;
22922;SDS011;11627;51.322;22.816;2023-01-24T00:15:12;33.20;;;13.70;;
22922;SDS011;11627;51.322;22.816;2023-01-24T00:17:38;34.00;;;13.73;;
22922;SDS011;11627;51.322;22.816;2023-01-24T00:20:03;34.53;;;14.68;;
22922;SDS011;11627;51.322;22.816;2023-01-24T00:22:31;33.10;;;13.77;;
22922;SDS011;11627;51.322;22.816;2023-01-24T00:24:57;33.03;;;13.05;;
22922;SDS011;11627;51.322;22.816;2023-01-24T00:27:22;31.58;;;13.43;;
22922;SDS011;11627;51.322;22.816;2023-01-24T00:29:48;27.67;;;11.98;;
22922;SDS011;11627;51.322;22.816;2023-01-24T00:32:13;26.40;;;11.85;;
22922;SDS011;11627;51.322;22.816;2023-01-24T00:34:39;23.05;;;11.27;;
22922;SDS011;11627;51.322;22.816;2023-01-24T00:37:05;24.23;;;10.32;;
22922;SDS011;11627;51.322;22.816;2023-01-24T00:39:31;28.10;;;11.20;;
22922;SDS011;11627;51.322;22.816;2023-01-24T00:41:57;24.27;;;10.55;;
22922;SDS011;11627;51.322;22.816;2023-01-24T00:44:23;26.38;;;11.65;;
22922;SDS011;11627;51.322;22.816;2023-01-24T00:46:52;24.67;;;10.90;;
22922;SDS011;11627;51.322;22.816;2023-01-24T00:49:19;25.15;;;10.82;;
22922;SDS011;11627;51.322;22.816;2023-01-24T00:51:45;19.80;;;9.85;;
22922;SDS011;11627;51.322;22.816;2023-01-24T00:54:11;21.70;;;9.70;;
22922;SDS011;11627;51.322;22.816;2023-01-24T00:56:36;22.35;;;10.18;;
22922;SDS011;11627;51.322;22.816;2023-01-24T00:59:02;21.05;;;9.50;;
22922;SDS011;11627;51.322;22.816;2023-01-24T01:01:27;19.38;;;9.57;;
22922;SDS011;11627;51.322;22.816;2023-01-24T01:03:56;17.58;;;8.85;;
22922;SDS011;11627;51.322;22.816;2023-01-24T01:06:22;18.67;;;8.95;;
22922;SDS011;11627;51.322;22.816;2023-01-24T01:08:49;18.70;;;9.13;;
22922;SDS011;11627;51.322;22.816;2023-01-24T01:11:16;19.45;;;8.90;;
22922;SDS011;11627;51.322;22.816;2023-01-24T01:13:42;17.50;;;8.65;;
22922;SDS011;11627;51.322;22.816;2023-01-24T01:16:11;16.83;;;8.40;;
22922;SDS011;11627;51.322;22.816;2023-01-24T01:18:39;22.33;;;9.30;;
22922;SDS011;11627;51.322;22.816;2023-01-24T01:21:05;19.27;;;8.68;;
22922;SDS011;11627;51.322;22.816;2023-01-24T01:23:31;16.85;;;8.65;;
22922;SDS011;11627;51.322;22.816;2023-01-24T01:26:00;14.13;;;7.18;;
22922;SDS011;11627;51.322;22.816;2023-01-24T01:28:26;13.63;;;7.07;;
22922;SDS011;11627;51.322;22.816;2023-01-24T01:30:53;14.73;;;6.57;;
22922;SDS011;11627;51.322;22.816;2023-01-24T01:33:21;12.52;;;6.57;;
22922;SDS011;11627;51.322;22.816;2023-01-24T01:35:48;15.90;;;6.97;;
22922;SDS011;11627;51.322;22.816;2023-01-24T01:38:14;13.05;;;6.57;;
22922;SDS011;11627;51.322;22.816;2023-01-24T01:40:40;10.43;;;5.82;;
22922;SDS011;11627;51.322;22.816;2023-01-24T01:43:16;11.15;;;5.78;;
22922;SDS011;11627;51.322;22.816;2023-01-24T01:45:48;12.30;;;6.55;;
22922;SDS011;11627;51.322;22.816;2023-01-24T01:51:24;11.68;;;5.28;;
22922;SDS011;11627;51.322;22.816;2023-01-24T01:59:07;9.50;;;5.70;;
22922;SDS011;11627;51.322;22.816;2023-01-24T02:01:38;10.20;;;4.80;;
22922;SDS011;11627;51.322;22.816;2023-01-24T02:04:08;9.82;;;5.25;;
22922;SDS011;11627;51.322;22.816;2023-01-24T02:09:25;9.15;;;5.20;;
22922;SDS011;11627;51.322;22.816;2023-01-24T02:11:54;9.85;;;5.28;;
22922;SDS011;11627;51.322;22.816;2023-01-24T02:14:24;11.23;;;6.30;;
22922;SDS011;11627;51.322;22.816;2023-01-24T02:17:15;9.70;;;5.18;;
22922;SDS011;11627;51.322;22.816;2023-01-24T02:19:46;11.00;;;5.50;;
22922;SDS011;11627;51.322;22.816;2023-01-24T02:25:01;10.05;;;5.25;;
22922;SDS011;11627;51.322;22.816;2023-01-24T02:27:42;8.43;;;5.25;;
22922;SDS011;11627;51.322;22.816;2023-01-24T02:30:08;10.88;;;5.43;;
22922;SDS011;11627;51.322;22.816;2023-01-24T02:32:34;8.43;;;5.05;;
22922;SDS011;11627;51.322;22.816;2023-01-24T02:35:01;9.25;;;5.25;;
22922;SDS011;11627;51.322;22.816;2023-01-24T02:37:27;10.25;;;5.07;;
22922;SDS011;11627;51.322;22.816;2023-01-24T02:39:58;8.65;;;5.03;;
22922;SDS011;11627;51.322;22.816;2023-01-24T02:42:35;8.65;;;4.88;;
22922;SDS011;11627;51.322;22.816;2023-01-24T02:47:51;9.52;;;5.05;;
22922;SDS011;11627;51.322;22.816;2023-01-24T02:50:18;9.65;;;4.85;;
22922;SDS011;11627;51.322;22.816;2023-01-24T02:52:46;9.82;;;4.90;;
22922;SDS011;11627;51.322;22.816;2023-01-24T02:55:32;10.00;;;4.55;;
22922;SDS011;11627;51.322;22.816;2023-01-24T02:57:58;10.07;;;5.00;;
22922;SDS011;11627;51.322;22.816;2023-01-24T03:03:04;9.30;;;4.95;;
22922;SDS011;11627;51.322;22.816;2023-01-24T03:05:31;8.30;;;4.75;;
22922;SDS011;11627;51.322;22.816;2023-01-24T03:08:16;6.75;;;4.18;;
22922;SDS011;11627;51.322;22.816;2023-01-24T03:10:41;7.60;;;4.53;;
22922;SDS011;11627;51.322;22.816;2023-01-24T03:13:08;6.85;;;4.22;;
22922;SDS011;11627;51.322;22.816;2023-01-24T03:15:52;10.88;;;5.10;;
22922;SDS011;11627;51.322;22.816;2023-01-24T03:18:37;9.35;;;5.13;;
22922;SDS011;11627;51.322;22.816;2023-01-24T03:21:21;9.38;;;5.35;;
22922;SDS011;11627;51.322;22.816;2023-01-24T03:24:05;8.68;;;5.05;;
22922;SDS011;11627;51.322;22.816;2023-01-24T03:26:51;9.55;;;5.57;;
22922;SDS011;11627;51.322;22.816;2023-01-24T03:29:35;9.75;;;4.55;;
22922;SDS011;11627;51.322;22.816;2023-01-24T03:32:19;8.20;;;4.50;;
22922;SDS011;11627;51.322;22.816;2023-01-24T03:35:04;7.57;;;4.30;;
22922;SDS011;11627;51.322;22.816;2023-01-24T03:37:32;9.50;;;4.75;;
22922;SDS011;11627;51.322;22.816;2023-01-24T03:40:18;8.23;;;4.68;;
22922;SDS011;11627;51.322;22.816;2023-01-24T03:42:43;6.72;;;4.50;;
22922;SDS011;11627;51.322;22.816;2023-01-24T03:45:16;9.57;;;4.53;;
22922;SDS011;11627;51.322;22.816;2023-01-24T03:47:48;7.75;;;4.63;;
22922;SDS011;11627;51.322;22.816;2023-01-24T03:50:36;8.25;;;4.90;;
22922;SDS011;11627;51.322;22.816;2023-01-24T03:53:24;8.95;;;4.13;;
22922;SDS011;11627;51.322;22.816;2023-01-24T03:55:53;7.43;;;4.45;;
22922;SDS011;11627;51.322;22.816;2023-01-24T03:58:25;8.07;;;4.28;;
22922;SDS011;11627;51.322;22.816;2023-01-24T04:00:52;7.93;;;4.05;;
22922;SDS011;11627;51.322;22.816;2023-01-24T04:03:18;8.30;;;4.60;;
22922;SDS011;11627;51.322;22.816;2023-01-24T04:05:48;6.28;;;3.85;;
22922;SDS011;11627;51.322;22.816;2023-01-24T04:08:16;8.80;;;4.57;;
22922;SDS011;11627;51.322;22.816;2023-01-24T04:10:43;9.27;;;4.80;;
22922;SDS011;11627;51.322;22.816;2023-01-24T04:13:09;7.97;;;4.25;;
22922;SDS011;11627;51.322;22.816;2023-01-24T04:15:36;6.30;;;3.90;;
22922;SDS011;11627;51.322;22.816;2023-01-24T04:18:04;6.90;;;4.25;;
22922;SDS011;11627;51.322;22.816;2023-01-24T04:20:33;7.68;;;3.92;;
22922;SDS011;11627;51.322;22.816;2023-01-24T04:23:00;7.55;;;4.18;;
22922;SDS011;11627;51.322;22.816;2023-01-24T04:25:31;6.32;;;3.75;;
22922;SDS011;11627;51.322;22.816;2023-01-24T04:27:58;6.55;;;3.88;;
22922;SDS011;11627;51.322;22.816;2023-01-24T04:30:24;5.63;;;3.67;;
22922;SDS011;11627;51.322;22.816;2023-01-24T04:32:50;6.15;;;3.85;;
22922;SDS011;11627;51.322;22.816;2023-01-24T04:35:20;5.82;;;3.45;;
22922;SDS011;11627;51.322;22.816;2023-01-24T04:37:47;5.82;;;3.50;;
22922;SDS011;11627;51.322;22.816;2023-01-24T04:40:14;6.15;;;3.55;;
22922;SDS011;11627;51.322;22.816;2023-01-24T04:42:40;7.47;;;3.83;;
22922;SDS011;11627;51.322;22.816;2023-01-24T04:45:06;5.93;;;3.50;;
22922;SDS011;11627;51.322;22.816;2023-01-24T04:47:32;7.38;;;4.05;;
22922;SDS011;11627;51.322;22.816;2023-01-24T04:49:58;4.85;;;3.10;;
22922;SDS011;11627;51.322;22.816;2023-01-24T04:52:23;6.65;;;4.07;;
22922;SDS011;11627;51.322;22.816;2023-01-24T04:54:49;8.02;;;3.90;;
22922;SDS011;11627;51.322;22.816;2023-01-24T04:57:16;6.18;;;3.58;;
22922;SDS011;11627;51.322;22.816;2023-01-24T04:59:43;6.88;;;3.60;;
22922;SDS011;11627;51.322;22.816;2023-01-24T05:02:09;6.45;;;3.47;;
22922;SDS011;11627;51.322;22.816;2023-01-24T05:04:35;6.75;;;3.47;;
22922;SDS011;11627;51.322;22.816;2023-01-24T05:07:01;5.53;;;3.55;;
22922;SDS011;11627;51.322;22.816;2023-01-24T05:09:27;6.82;;;3.38;;
22922;SDS011;11627;51.322;22.816;2023-01-24T05:11:52;4.72;;;3.20;;
22922;SDS011;11627;51.322;22.816;2023-01-24T05:14:18;5.38;;;3.08;;
22922;SDS011;11627;51.322;22.816;2023-01-24T05:16:45;5.05;;;2.90;;
22922;SDS011;11627;51.322;22.816;2023-01-24T05:19:10;5.07;;;2.92;;
22922;SDS011;11627;51.322;22.816;2023-01-24T05:21:36;5.85;;;3.33;;
22922;SDS011;11627;51.322;22.816;2023-01-24T05:24:02;5.20;;;3.20;;
22922;SDS011;11627;51.322;22.816;2023-01-24T05:26:28;5.78;;;3.20;;
22922;SDS011;11627;51.322;22.816;2023-01-24T05:28:54;3.65;;;2.55;;
22922;SDS011;11627;51.322;22.816;2023-01-24T05:31:22;6.78;;;3.35;;
22922;SDS011;11627;51.322;22.816;2023-01-24T05:33:49;5.82;;;3.13;;
22922;SDS011;11627;51.322;22.816;2023-01-24T05:36:17;4.75;;;2.60;;
22922;SDS011;11627;51.322;22.816;2023-01-24T05:38:47;4.50;;;2.50;;
22922;SDS011;11627;51.322;22.816;2023-01-24T05:41:14;4.60;;;2.65;;
22922;SDS011;11627;51.322;22.816;2023-01-24T05:43:43;4.47;;;2.60;;
22922;SDS011;11627;51.322;22.816;2023-01-24T05:46:10;11.52;;;7.03;;
22922;SDS011;11627;51.322;22.816;2023-01-24T05:48:44;17.20;;;9.10;;
22922;SDS011;11627;51.322;22.816;2023-01-24T05:51:12;11.07;;;6.82;;
22922;SDS011;11627;51.322;22.816;2023-01-24T05:53:40;7.22;;;3.38;;
22922;SDS011;11627;51.322;22.816;2023-01-24T05:56:09;5.40;;;3.13;;
22922;SDS011;11627;51.322;22.816;2023-01-24T05:58:38;5.40;;;2.88;;
22922;SDS011;11627;51.322;22.816;2023-01-24T06:01:08;5.15;;;2.85;;
22922;SDS011;11627;51.322;22.816;2023-01-24T06:03:36;5.10;;;2.95;;
22922;SDS011;11627;51.322;22.816;2023-01-24T06:06:02;5.50;;;2.72;;
22922;SDS011;11627;51.322;22.816;2023-01-24T06:08:28;5.60;;;3.35;;
22922;SDS011;11627;51.322;22.816;2023-01-24T06:10:53;5.75;;;2.67;;
22922;SDS011;11627;51.322;22.816;2023-01-24T06:13:19;7.00;;;2.80;;
22922;SDS011;11627;51.322;22.816;2023-01-24T06:15:45;3.22;;;2.40;;
22922;SDS011;11627;51.322;22.816;2023-01-24T06:18:12;6.72;;;2.75;;
22922;SDS011;11627;51.322;22.816;2023-01-24T06:20:40;5.30;;;2.95;;
22922;SDS011;11627;51.322;22.816;2023-01-24T06:23:06;4.00;;;2.70;;
22922;SDS011;11627;51.322;22.816;2023-01-24T06:25:34;4.35;;;2.88;;
22922;SDS011;11627;51.322;22.816;2023-01-24T06:28:01;6.32;;;2.80;;
22922;SDS011;11627;51.322;22.816;2023-01-24T06:30:29;4.85;;;2.97;;
22922;SDS011;11627;51.322;22.816;2023-01-24T06:33:17;7.15;;;4.00;;
22922;SDS011;11627;51.322;22.816;2023-01-24T06:36:31;6.65;;;3.63;;
22922;SDS011;11627;51.322;22.816;2023-01-24T06:39:08;4.40;;;2.72;;
22922;SDS011;11627;51.322;22.816;2023-01-24T06:41:39;6.03;;;3.17;;
22922;SDS011;11627;51.322;22.816;2023-01-24T06:44:05;5.65;;;3.08;;
22922;SDS011;11627;51.322;22.816;2023-01-24T06:46:32;5.97;;;3.28;;
22922;SDS011;11627;51.322;22.816;2023-01-24T06:48:58;4.80;;;3.53;;
22922;SDS011;11627;51.322;22.816;2023-01-24T06:51:23;5.80;;;3.13;;
22922;SDS011;11627;51.322;22.816;2023-01-24T06:53:50;6.40;;;3.60;;
22922;SDS011;11627;51.322;22.816;2023-01-24T06:56:15;6.57;;;3.53;;
22922;SDS011;11627;51.322;22.816;2023-01-24T06:58:41;5.00;;;2.92;;
22922;SDS011;11627;51.322;22.816;2023-01-24T07:01:07;6.00;;;3.03;;
22922;SDS011;11627;51.322;22.816;2023-01-24T07:03:32;6.13;;;3.50;;
22922;SDS011;11627;51.322;22.816;2023-01-24T07:05:58;5.63;;;3.08;;
22922;SDS011;11627;51.322;22.816;2023-01-24T07:08:23;4.68;;;3.17;;
22922;SDS011;11627;51.322;22.816;2023-01-24T07:10:49;6.50;;;3.30;;
22922;SDS011;11627;51.322;22.816;2023-01-24T07:13:15;5.30;;;2.90;;
22922;SDS011;11627;51.322;22.816;2023-01-24T07:15:42;7.25;;;3.08;;
22922;SDS011;11627;51.322;22.816;2023-01-24T07:18:08;6.80;;;3.90;;
22922;SDS011;11627;51.322;22.816;2023-01-24T07:20:36;7.75;;;3.90;;
22922;SDS011;11627;51.322;22.816;2023-01-24T07:23:02;6.50;;;4.05;;
22922;SDS011;11627;51.322;22.816;2023-01-24T07:25:28;6.13;;;3.60;;
22922;SDS011;11627;51.322;22.816;2023-01-24T07:27:54;6.90;;;3.67;;
22922;SDS011;11627;51.322;22.816;2023-01-24T07:30:19;8.10;;;4.45;;
22922;SDS011;11627;51.322;22.816;2023-01-24T07:32:45;7.68;;;4.43;;
22922;SDS011;11627;51.322;22.816;2023-01-24T07:35:11;9.45;;;4.20;;
22922;SDS011;11627;51.322;22.816;2023-01-24T07:37:37;5.95;;;3.90;;
22922;SDS011;11627;51.322;22.816;2023-01-24T07:40:04;7.68;;;3.30;;
22922;SDS011;11627;51.322;22.816;2023-01-24T07:42:30;6.35;;;3.50;;
22922;SDS011;11627;51.322;22.816;2023-01-24T07:44:57;7.65;;;3.75;;
22922;SDS011;11627;51.322;22.816;2023-01-24T07:47:24;6.35;;;3.72;;
22922;SDS011;11627;51.322;22.816;2023-01-24T07:49:51;7.60;;;4.22;;
22922;SDS011;11627;51.322;22.816;2023-01-24T07:52:17;6.75;;;3.70;;
22922;SDS011;11627;51.322;22.816;2023-01-24T07:54:42;5.00;;;3.60;;
22922;SDS011;11627;51.322;22.816;2023-01-24T07:57:09;7.15;;;3.55;;
22922;SDS011;11627;51.322;22.816;2023-01-24T07:59:35;7.32;;;3.38;;
22922;SDS011;11627;51.322;22.816;2023-01-24T08:02:00;8.07;;;3.47;;
22922;SDS011;11627;51.322;22.816;2023-01-24T08:04:27;9.15;;;3.88;;
22922;SDS011;11627;51.322;22.816;2023-01-24T08:06:53;8.95;;;4.78;;
22922;SDS011;11627;51.322;22.816;2023-01-24T08:09:37;7.03;;;4.10;;
22922;SDS011;11627;51.322;22.816;2023-01-24T08:12:04;9.25;;;5.40;;
22922;SDS011;11627;51.322;22.816;2023-01-24T08:14:29;10.32;;;5.18;;
22922;SDS011;11627;51.322;22.816;2023-01-24T08:16:55;13.45;;;7.28;;
22922;SDS011;11627;51.322;22.816;2023-01-24T08:19:21;11.43;;;5.97;;
22922;SDS011;11627;51.322;22.816;2023-01-24T08:21:46;38.28;;;21.42;;
22922;SDS011;11627;51.322;22.816;2023-01-24T08:24:13;31.33;;;17.35;;
22922;SDS011;11627;51.322;22.816;2023-01-24T08:26:38;16.75;;;8.23;;
22922;SDS011;11627;51.322;22.816;2023-01-24T08:29:05;8.93;;;5.65;;
22922;SDS011;11627;51.322;22.816;2023-01-24T08:31:31;9.70;;;4.68;;
22922;SDS011;11627;51.322;22.816;2023-01-24T08:33:58;9.73;;;4.68;;
22922;SDS011;11627;51.322;22.816;2023-01-24T08:36:24;8.98;;;5.00;;
22922;SDS011;11627;51.322;22.816;2023-01-24T08:38:50;9.32;;;5.20;;
22922;SDS011;11627;51.322;22.816;2023-01-24T08:41:16;7.72;;;4.13;;
22922;SDS011;11627;51.322;22.816;2023-01-24T08:43:41;8.35;;;4.43;;
22922;SDS011;11627;51.322;22.816;2023-01-24T08:46:07;9.40;;;4.57;;
22922;SDS011;11627;51.322;22.816;2023-01-24T08:48:33;11.73;;;5.70;;
22922;SDS011;11627;51.322;22.816;2023-01-24T08:51:02;13.10;;;6.70;;
22922;SDS011;11627;51.322;22.816;2023-01-24T08:53:42;16.84;;;6.18;;
22922;SDS011;11627;51.322;22.816;2023-01-24T08:56:07;15.30;;;7.13;;
22922;SDS011;11627;51.322;22.816;2023-01-24T08:58:34;12.55;;;6.13;;
22922;SDS011;11627;51.322;22.816;2023-01-24T09:01:00;14.95;;;6.35;;
22922;SDS011;11627;51.322;22.816;2023-01-24T09:03:35;13.30;;;6.57;;
22922;SDS011;11627;51.322;22.816;2023-01-24T09:06:02;17.33;;;7.70;;
22922;SDS011;11627;51.322;22.816;2023-01-24T09:08:28;15.88;;;6.80;;
22922;SDS011;11627;51.322;22.816;2023-01-24T09:10:57;14.07;;;6.13;;
22922;SDS011;11627;51.322;22.816;2023-01-24T09:13:23;11.27;;;5.00;;
22922;SDS011;11627;51.322;22.816;2023-01-24T09:15:49;11.05;;;4.60;;
22922;SDS011;11627;51.322;22.816;2023-01-24T09:18:16;11.60;;;5.57;;
22922;SDS011;11627;51.322;22.816;2023-01-24T09:20:42;11.73;;;5.93;;
22922;SDS011;11627;51.322;22.816;2023-01-24T09:23:11;11.52;;;5.75;;
22922;SDS011;11627;51.322;22.816;2023-01-24T09:25:39;13.30;;;4.80;;
22922;SDS011;11627;51.322;22.816;2023-01-24T09:28:06;8.68;;;4.63;;
22922;SDS011;11627;51.322;22.816;2023-01-24T09:30:33;7.70;;;4.18;;
22922;SDS011;11627;51.322;22.816;2023-01-24T09:33:03;7.68;;;3.95;;
22922;SDS011;11627;51.322;22.816;2023-01-24T09:35:30;9.93;;;4.80;;
22922;SDS011;11627;51.322;22.816;2023-01-24T09:37:56;8.35;;;4.22;;
22922;SDS011;11627;51.322;22.816;2023-01-24T09:41:06;5.88;;;3.83;;
22922;SDS011;11627;51.322;22.816;2023-01-24T09:43:21;6.85;;;3.85;;
22922;SDS011;11627;51.322;22.816;2023-01-24T09:49:01;6.65;;;3.67;;
22922;SDS011;11627;51.322;22.816;2023-01-24T09:51:34;4.97;;;3.20;;
22922;SDS011;11627;51.322;22.816;2023-01-24T09:54:05;3.58;;;2.70;;
22922;SDS011;11627;51.322;22.816;2023-01-24T10:01:40;10.85;;;4.22;;
22922;SDS011;11627;51.322;22.816;2023-01-24T10:04:22;9.48;;;4.20;;
22922;SDS011;11627;51.322;22.816;2023-01-24T10:06:58;10.55;;;4.43;;
22922;SDS011;11627;51.322;22.816;2023-01-24T10:09:58;9.63;;;4.25;;
22922;SDS011;11627;51.322;22.816;2023-01-24T10:13:08;10.80;;;4.80;;
22922;SDS011;11627;51.322;22.816;2023-01-24T10:16:03;10.38;;;4.63;;
22922;SDS011;11627;51.322;22.816;2023-01-24T10:24:24;5.90;;;3.45;;
22922;SDS011;11627;51.322;22.816;2023-01-24T10:26:55;5.38;;;3.47;;
22922;SDS011;11627;51.322;22.816;2023-01-24T10:29:25;6.88;;;3.80;;
22922;SDS011;11627;51.322;22.816;2023-01-24T10:34:34;8.50;;;4.28;;
22922;SDS011;11627;51.322;22.816;2023-01-24T10:37:25;8.27;;;4.20;;
22922;SDS011;11627;51.322;22.816;2023-01-24T10:39:57;6.20;;;3.55;;
22922;SDS011;11627;51.322;22.816;2023-01-24T10:42:27;6.97;;;3.38;;
22922;SDS011;11627;51.322;22.816;2023-01-24T10:45:00;8.30;;;3.42;;
22922;SDS011;11627;51.322;22.816;2023-01-24T10:50:33;4.93;;;3.05;;
22922;SDS011;11627;51.322;22.816;2023-01-24T10:53:23;3.92;;;3.22;;
22922;SDS011;11627;51.322;22.816;2023-01-24T10:55:56;7.15;;;3.90;;
22922;SDS011;11627;51.322;22.816;2023-01-24T10:58:25;6.13;;;3.63;;
22922;SDS011;11627;51.322;22.816;2023-01-24T11:01:14;7.38;;;3.58;;
22922;SDS011;11627;51.322;22.816;2023-01-24T11:03:59;8.95;;;3.65;;
22922;SDS011;11627;51.322;22.816;2023-01-24T11:06:59;4.65;;;3.00;;
22922;SDS011;11627;51.322;22.816;2023-01-24T11:09:30;8.55;;;3.67;;
22922;SDS011;11627;51.322;22.816;2023-01-24T11:11:59;5.18;;;3.20;;
22922;SDS011;11627;51.322;22.816;2023-01-24T11:14:26;6.60;;;3.92;;
22922;SDS011;11627;51.322;22.816;2023-01-24T11:16:57;8.05;;;4.38;;
22922;SDS011;11627;51.322;22.816;2023-01-24T11:19:34;8.70;;;4.35;;
22922;SDS011;11627;51.322;22.816;2023-01-24T11:22:21;7.43;;;4.25;;
22922;SDS011;11627;51.322;22.816;2023-01-24T11:25:03;8.27;;;4.60;;
22922;SDS011;11627;51.322;22.816;2023-01-24T11:27:50;6.82;;;3.70;;
22922;SDS011;11627;51.322;22.816;2023-01-24T11:30:20;7.03;;;4.18;;
22922;SDS011;11627;51.322;22.816;2023-01-24T11:35:54;9.07;;;5.95;;
22922;SDS011;11627;51.322;22.816;2023-01-24T11:41:00;13.10;;;6.93;;
22922;SDS011;11627;51.322;22.816;2023-01-24T11:46:52;15.13;;;6.20;;
22922;SDS011;11627;51.322;22.816;2023-01-24T12:08:29;7.50;;;4.50;;
22922;SDS011;11627;51.322;22.816;2023-01-24T12:11:00;7.90;;;3.78;;
22922;SDS011;11627;51.322;22.816;2023-01-24T12:19:49;8.30;;;4.72;;
22922;SDS011;11627;51.322;22.816;2023-01-24T12:22:32;13.38;;;6.57;;
22922;SDS011;11627;51.322;22.816;2023-01-24T12:25:10;12.10;;;6.82;;
22922;SDS011;11627;51.322;22.816;2023-01-24T12:27:48;15.00;;;7.45;;
22922;SDS011;11627;51.322;22.816;2023-01-24T12:39:18;15.25;;;6.78;;
22922;SDS011;11627;51.322;22.816;2023-01-24T12:41:47;15.20;;;7.85;;
22922;SDS011;11627;51.322;22.816;2023-01-24T12:44:41;15.75;;;7.82;;
22922;SDS011;11627;51.322;22.816;2023-01-24T12:50:01;15.35;;;8.35;;
22922;SDS011;11627;51.322;22.816;2023-01-24T12:52:39;15.35;;;8.27;;
22922;SDS011;11627;51.322;22.816;2023-01-24T12:57:56;16.50;;;8.55;;
22922;SDS011;11627;51.322;22.816;2023-01-24T13:00:29;15.43;;;9.10;;
22922;SDS011;11627;51.322;22.816;2023-01-24T13:03:20;16.65;;;9.18;;
22922;SDS011;11627;51.322;22.816;2023-01-24T13:06:26;16.92;;;9.48;;
22922;SDS011;11627;51.322;22.816;2023-01-24T13:12:21;14.07;;;7.88;;
22922;SDS011;11627;51.322;22.816;2023-01-24T13:14:50;12.98;;;7.82;;
22922;SDS011;11627;51.322;22.816;2023-01-24T13:26:07;13.18;;;6.45;;
22922;SDS011;11627;51.322;22.816;2023-01-24T13:34:35;17.15;;;9.05;;
22922;SDS011;11627;51.322;22.816;2023-01-24T13:37:13;15.85;;;9.00;;
22922;SDS011;11627;51.322;22.816;2023-01-24T13:40:06;18.23;;;10.90;;
22922;SDS011;11627;51.322;22.816;2023-01-24T13:42:47;17.42;;;9.68;;
22922;SDS011;11627;51.322;22.816;2023-01-24T13:47:57;14.93;;;6.95;;
22922;SDS011;11627;51.322;22.816;2023-01-24T13:50:24;16.27;;;8.43;;
22922;SDS011;11627;51.322;22.816;2023-01-24T13:58:33;13.13;;;7.55;;
22922;SDS011;11627;51.322;22.816;2023-01-24T14:03:17;18.38;;;11.65;;
22922;SDS011;11627;51.322;22.816;2023-01-24T14:13:56;15.55;;;8.88;;
22922;SDS011;11627;51.322;22.816;2023-01-24T14:21:36;14.48;;;8.52;;
22922;SDS011;11627;51.322;22.816;2023-01-24T14:24:20;16.55;;;8.95;;
22922;SDS011;11627;51.322;22.816;2023-01-24T14:27:27;16.17;;;8.70;;
22922;SDS011;11627;51.322;22.816;2023-01-24T14:30:00;16.85;;;9.75;;
22922;SDS011;11627;51.322;22.816;2023-01-24T14:32:50;18.38;;;9.43;;
22922;SDS011;11627;51.322;22.816;2023-01-24T14:35:23;15.18;;;9.15;;
22922;SDS011;11627;51.322;22.816;2023-01-24T14:38:12;13.13;;;7.55;;
22922;SDS011;11627;51.322;22.816;2023-01-24T14:40:49;16.75;;;8.68;;
22922;SDS011;11627;51.322;22.816;2023-01-24T14:43:16;17.42;;;8.73;;
22922;SDS011;11627;51.322;22.816;2023-01-24T14:45:45;15.70;;;8.88;;
22922;SDS011;11627;51.322;22.816;2023-01-24T14:48:15;15.77;;;8.77;;
22922;SDS011;11627;51.322;22.816;2023-01-24T14:50:55;14.90;;;8.38;;
22922;SDS011;11627;51.322;22.816;2023-01-24T14:53:29;13.00;;;7.10;;
22922;SDS011;11627;51.322;22.816;2023-01-24T14:56:00;15.48;;;7.28;;
22922;SDS011;11627;51.322;22.816;2023-01-24T14:58:33;14.57;;;7.75;;
22922;SDS011;11627;51.322;22.816;2023-01-24T15:00:59;12.32;;;7.10;;
22922;SDS011;11627;51.322;22.816;2023-01-24T15:03:27;13.35;;;7.70;;
22922;SDS011;11627;51.322;22.816;2023-01-24T15:05:58;14.15;;;7.93;;
22922;SDS011;11627;51.322;22.816;2023-01-24T15:08:24;16.15;;;8.55;;
22922;SDS011;11627;51.322;22.816;2023-01-24T15:11:04;14.35;;;7.63;;
22922;SDS011;11627;51.322;22.816;2023-01-24T15:13:35;16.45;;;8.00;;
22922;SDS011;11627;51.322;22.816;2023-01-24T15:21:59;14.43;;;8.43;;
22922;SDS011;11627;51.322;22.816;2023-01-24T15:24:27;15.23;;;8.20;;
22922;SDS011;11627;51.322;22.816;2023-01-24T15:26:54;16.42;;;7.97;;
22922;SDS011;11627;51.322;22.816;2023-01-24T15:40:30;24.73;;;12.63;;
22922;SDS011;11627;51.322;22.816;2023-01-24T15:42:59;52.13;;;22.00;;
22922;SDS011;11627;51.322;22.816;2023-01-24T15:45:45;61.00;;;26.20;;
22922;SDS011;11627;51.322;22.816;2023-01-24T15:48:57;72.65;;;27.83;;
22922;SDS011;11627;51.322;22.816;2023-01-24T15:53:58;54.28;;;22.45;;
22922;SDS011;11627;51.322;22.816;2023-01-24T15:56:24;51.63;;;21.70;;
22922;SDS011;11627;51.322;22.816;2023-01-24T15:58:50;40.85;;;18.15;;
22922;SDS011;11627;51.322;22.816;2023-01-24T16:01:16;41.30;;;17.88;;
22922;SDS011;11627;51.322;22.816;2023-01-24T16:03:41;38.45;;;16.33;;
22922;SDS011;11627;51.322;22.816;2023-01-24T16:06:07;39.13;;;16.30;;
22922;SDS011;11627;51.322;22.816;2023-01-24T16:08:34;34.47;;;15.00;;
22922;SDS011;11627;51.322;22.816;2023-01-24T16:11:01;34.10;;;15.20;;
22922;SDS011;11627;51.322;22.816;2023-01-24T16:13:34;31.60;;;14.80;;
22922;SDS011;11627;51.322;22.816;2023-01-24T16:16:09;32.92;;;15.32;;
22922;SDS011;11627;51.322;22.816;2023-01-24T16:18:37;43.70;;;19.05;;
22922;SDS011;11627;51.322;22.816;2023-01-24T16:21:04;60.47;;;22.48;;
22922;SDS011;11627;51.322;22.816;2023-01-24T16:23:31;57.17;;;20.70;;
22922;SDS011;11627;51.322;22.816;2023-01-24T16:25:58;45.47;;;17.70;;
22922;SDS011;11627;51.322;22.816;2023-01-24T16:28:25;39.17;;;16.05;;
22922;SDS011;11627;51.322;22.816;2023-01-24T16:30:54;36.00;;;14.55;;
22922;SDS011;11627;51.322;22.816;2023-01-24T16:33:26;35.53;;;14.65;;
22922;SDS011;11627;51.322;22.816;2023-01-24T16:35:52;35.63;;;15.00;;
22922;SDS011;11627;51.322;22.816;2023-01-24T16:38:18;33.42;;;14.15;;
22922;SDS011;11627;51.322;22.816;2023-01-24T16:40:45;29.85;;;13.23;;
22922;SDS011;11627;51.322;22.816;2023-01-24T16:43:18;29.73;;;14.07;;
22922;SDS011;11627;51.322;22.816;2023-01-24T16:45:46;28.60;;;13.07;;
22922;SDS011;11627;51.322;22.816;2023-01-24T16:48:13;26.92;;;13.32;;
22922;SDS011;11627;51.322;22.816;2023-01-24T16:50:40;33.47;;;14.50;;
22922;SDS011;11627;51.322;22.816;2023-01-24T16:53:07;30.10;;;13.13;;
22922;SDS011;11627;51.322;22.816;2023-01-24T16:55:33;33.88;;;14.52;;
22922;SDS011;11627;51.322;22.816;2023-01-24T16:58:02;32.72;;;14.25;;
22922;SDS011;11627;51.322;22.816;2023-01-24T17:00:30;33.03;;;15.35;;
22922;SDS011;11627;51.322;22.816;2023-01-24T17:02:57;33.25;;;14.48;;
22922;SDS011;11627;51.322;22.816;2023-01-24T17:05:24;34.00;;;14.88;;
22922;SDS011;11627;51.322;22.816;2023-01-24T17:07:53;31.60;;;14.82;;
22922;SDS011;11627;51.322;22.816;2023-01-24T17:10:19;31.15;;;13.77;;
22922;SDS011;11627;51.322;22.816;2023-01-24T17:12:45;33.67;;;14.07;;
22922;SDS011;11627;51.322;22.816;2023-01-24T17:15:11;32.40;;;15.05;;